Messwerte Wetterstation Mannheim 98m (Baden-Württemberg)

Aktuelle Messwerte

Temperatur und Niederschlag
Taupunkt, Temperatur und Luftfeuchtigkeit

Anzeige

Windrichtung und Windböen
Luftdruck
Datum Temperatur °C Niederschlag l/m² (10 min) Taupunkt °C Rel. Feuchte % Windböen km/h Windrichtung Luftdruck (hPa)
22.04 - 16:50 Uhr - 0.0 - - 26 60 -
22.04 - 16:40 Uhr - 0.0 - - 27 50 -
22.04 - 16:30 Uhr - 0.0 - - 22 10 -
22.04 - 16:20 Uhr 17.7 0.0 -2.0 26 23 50 1012
22.04 - 16:10 Uhr 17.6 0.0 -2.4 26 22 50 1012
22.04 - 16:00 Uhr 17.4 0.0 -2.7 25 24 40 1012
22.04 - 15:50 Uhr 17.6 0.0 -0.9 28 23 70 1012
22.04 - 15:40 Uhr 16.5 0.0 -3.2 26 21 30 1012
22.04 - 15:30 Uhr 17.3 0.0 -1.9 27 27 60 1013
22.04 - 15:20 Uhr 17.1 0.0 -1.1 29 19 110 1013
22.04 - 15:10 Uhr 17.0 0.0 -1.7 28 21 100 1013
22.04 - 15:00 Uhr 17.3 0.0 -1.8 27 21 320 1013
22.04 - 14:50 Uhr 17.1 0.0 -1.1 29 21 80 1013
22.04 - 14:40 Uhr 17.0 0.0 -2.3 27 30 60 1013
22.04 - 14:30 Uhr 16.9 0.0 -2.3 27 25 70 1013
22.04 - 14:20 Uhr 17.2 0.0 -1.4 28 35 80 1013
22.04 - 14:10 Uhr 16.1 0.0 -2.1 29 24 120 1013
22.04 - 14:00 Uhr 15.8 0.0 -2.7 28 25 110 1013
22.04 - 13:50 Uhr 15.6 0.0 -2.5 29 25 130 1013
22.04 - 13:40 Uhr 16.1 0.0 -3.1 27 26 120 1013
22.04 - 13:30 Uhr 15.6 0.0 -2.7 28 27 110 1013
22.04 - 13:20 Uhr 15.8 0.0 -1.8 30 27 90 1013
22.04 - 13:10 Uhr 15.5 0.0 -2.2 30 30 70 1013
22.04 - 13:00 Uhr 15.6 0.0 -2.5 29 27 50 1013
22.04 - 12:50 Uhr 15.6 0.0 -2.2 29 30 80 1013
22.04 - 12:40 Uhr 15.1 0.0 -2.3 30 28 60 1013
22.04 - 12:30 Uhr 15.1 0.0 -2.8 29 30 60 1013
22.04 - 12:20 Uhr 14.5 0.0 -3.3 29 31 70 1013
22.04 - 12:10 Uhr 14.4 0.0 -2.4 31 29 100 1013
22.04 - 12:00 Uhr 14.9 0.0 -2.7 30 34 70 1013
22.04 - 11:50 Uhr 14.5 0.0 -2.5 31 31 80 1013
22.04 - 11:40 Uhr 14.1 0.0 -2.6 32 26 70 1013
22.04 - 11:30 Uhr 13.9 0.0 -3.1 31 28 70 1013
22.04 - 11:20 Uhr 14.0 0.0 -2.3 32 33 60 1013
22.04 - 11:10 Uhr 13.9 0.0 -2.7 32 30 80 1013
22.04 - 11:00 Uhr 14.1 0.0 -1.8 33 47 70 1013
22.04 - 10:50 Uhr 14.0 0.0 -1.6 34 26 110 1013
22.04 - 10:40 Uhr 13.2 0.0 -1.9 35 26 100 1013
22.04 - 10:30 Uhr 13.5 0.0 -1.3 36 23 70 1013
22.04 - 10:20 Uhr 12.8 0.0 -0.9 39 19 50 1013
22.04 - 10:10 Uhr 12.9 0.0 0.4 42 18 40 1013
22.04 - 10:00 Uhr 11.9 0.0 -1.4 40 22 40 1013
22.04 - 09:50 Uhr 12.4 0.0 0.1 43 15 60 1013
22.04 - 09:40 Uhr 12.0 0.0 -0.8 41 21 80 1013
22.04 - 09:30 Uhr 11.3 0.0 0.7 48 20 50 1013
22.04 - 09:20 Uhr 11.1 0.0 0.5 48 19 50 1013
22.04 - 09:10 Uhr 10.7 0.0 1.0 51 14 50 1013
22.04 - 09:00 Uhr 10.3 0.0 0.9 52 14 30 1013
22.04 - 08:50 Uhr 9.7 0.0 0.4 52 18 50 1013
22.04 - 08:40 Uhr 9.3 0.0 0.4 54 17 50 1013
22.04 - 08:30 Uhr 9.0 0.0 0.3 54 18 50 1013
22.04 - 08:20 Uhr 8.7 0.0 0.3 56 19 50 1013
22.04 - 08:10 Uhr 8.3 0.0 0.1 56 17 50 1013
22.04 - 08:00 Uhr 7.9 0.0 0.2 58 16 50 1013
22.04 - 07:50 Uhr 7.6 0.0 0.1 59 15 40 1013
22.04 - 07:40 Uhr 7.1 0.0 0.1 61 15 40 1013
22.04 - 07:30 Uhr 6.8 0.0 0.0 62 13 50 1013
22.04 - 07:20 Uhr 6.5 0.0 -0.2 62 16 40 1013
22.04 - 07:10 Uhr 6.2 0.0 -0.3 63 17 50 1013
22.04 - 07:00 Uhr 6.2 0.0 -0.3 63 17 40 1012
22.04 - 06:50 Uhr 5.9 0.0 -0.4 64 18 50 1012
22.04 - 06:40 Uhr 5.8 0.0 -0.3 65 17 50 1012
22.04 - 06:30 Uhr 5.7 0.0 -0.3 65 16 50 1012
22.04 - 06:20 Uhr 5.7 0.0 -0.3 65 17 50 1012
22.04 - 06:10 Uhr 5.8 0.0 -0.3 65 18 40 1012
22.04 - 06:00 Uhr 5.9 0.0 -0.2 65 17 50 1012
22.04 - 05:50 Uhr 5.7 0.0 -0.2 66 18 40 1012
22.04 - 05:40 Uhr 5.7 0.0 -0.3 66 17 50 1012
22.04 - 05:30 Uhr 5.8 0.0 -0.3 65 16 50 1012
22.04 - 05:20 Uhr 5.9 0.0 -0.3 65 16 50 1012
22.04 - 05:10 Uhr 6.0 0.0 -0.3 64 14 50 1011
22.04 - 05:00 Uhr 6.4 0.0 -0.3 62 15 50 1012
22.04 - 04:50 Uhr 6.3 0.0 -0.4 62 15 50 1011
22.04 - 04:40 Uhr 6.5 0.0 -0.4 61 20 50 1011
22.04 - 04:30 Uhr 6.8 0.0 -0.2 61 18 40 1011
22.04 - 04:20 Uhr 6.6 0.0 -0.4 61 17 60 1011
22.04 - 04:10 Uhr 6.8 0.0 -0.5 60 20 50 1011
22.04 - 04:00 Uhr 7.8 0.0 -0.4 56 19 50 1011
22.04 - 03:50 Uhr 8.0 0.0 -0.4 55 24 80 1011
22.04 - 03:40 Uhr 8.0 0.0 -0.4 55 20 40 1011
22.04 - 03:30 Uhr 7.7 0.0 -0.4 57 19 50 1011
22.04 - 03:20 Uhr 7.4 0.0 -0.5 57 16 50 1011
22.04 - 03:10 Uhr 8.7 0.0 -0.6 52 21 80 1011
22.04 - 03:00 Uhr 8.3 0.0 -0.5 54 22 50 1011
22.04 - 02:50 Uhr 8.9 0.0 -0.6 51 25 60 1011
22.04 - 02:40 Uhr 9.2 0.0 -0.7 50 24 60 1011
22.04 - 02:30 Uhr 8.3 0.0 -0.6 53 24 70 1011
22.04 - 02:20 Uhr 8.7 0.0 -0.6 52 23 60 1011
22.04 - 02:10 Uhr 7.8 0.0 -0.7 55 22 50 1011
22.04 - 02:00 Uhr 8.6 0.0 -0.4 53 24 60 1011
22.04 - 01:50 Uhr 8.4 0.0 -0.6 53 20 50 1011
22.04 - 01:40 Uhr 8.6 0.0 -0.6 53 18 50 1011
22.04 - 01:30 Uhr 8.4 0.0 -0.6 53 18 40 1011
22.04 - 01:20 Uhr 8.9 0.0 -0.6 51 16 40 1011
22.04 - 01:10 Uhr 8.9 0.0 -0.6 51 16 40 1011
22.04 - 01:00 Uhr 9.2 0.0 -0.7 50 17 40 1011
22.04 - 00:50 Uhr 8.8 0.0 -0.7 51 14 60 1011
22.04 - 00:40 Uhr 9.3 0.0 -0.8 49 17 20 1011
22.04 - 00:30 Uhr 9.3 0.0 -1.0 49 19 50 1011
22.04 - 00:20 Uhr 9.4 0.0 -1.0 48 18 50 1011
22.04 - 00:10 Uhr 9.8 0.0 -1.2 46 21 50 1011
22.04 - 00:00 Uhr 9.9 0.0 -1.3 46 21 50 1011
21.04 - 23:50 Uhr 9.9 0.0 -1.4 45 19 50 1011
21.04 - 23:40 Uhr 10.0 0.0 -1.5 45 20 50 1011
21.04 - 23:30 Uhr 10.0 0.0 -1.4 45 18 40 1011
21.04 - 23:20 Uhr 9.8 0.0 -1.3 46 15 50 1011
21.04 - 23:10 Uhr 9.7 0.0 -1.3 46 13 50 1011
21.04 - 23:00 Uhr 9.8 0.0 -1.3 46 15 50 1011
21.04 - 22:50 Uhr 10.2 0.0 -1.2 45 13 40 1011
21.04 - 22:40 Uhr 10.0 0.0 -0.9 47 13 40 1011
21.04 - 22:30 Uhr 9.9 0.0 -0.8 47 15 40 1011
21.04 - 22:20 Uhr 10.3 0.0 -0.8 46 16 50 1011
21.04 - 22:10 Uhr 10.2 0.0 -0.6 47 14 50 1010
21.04 - 22:00 Uhr 10.3 0.0 -0.4 47 13 40 1010
21.04 - 21:50 Uhr 10.6 0.0 -0.3 47 13 50 1010
21.04 - 21:40 Uhr 10.9 0.0 -0.2 46 15 40 1010
21.04 - 21:30 Uhr 10.9 0.0 0.2 48 11 50 1010
21.04 - 21:20 Uhr 11.1 0.0 0.1 47 13 50 1010
21.04 - 21:10 Uhr 10.6 0.0 0.4 49 12 50 1010
21.04 - 21:00 Uhr 10.9 0.0 0.4 48 13 50 1010
21.04 - 20:50 Uhr 11.2 0.0 0.5 48 16 40 1010
21.04 - 20:40 Uhr 11.2 0.0 0.8 49 14 40 1010
21.04 - 20:30 Uhr 11.4 0.0 0.9 48 10 50 1009
21.04 - 20:20 Uhr 11.6 0.0 0.8 48 9 60 1009
21.04 - 20:10 Uhr 12.1 0.0 0.8 46 8 70 1009
21.04 - 20:00 Uhr 11.7 0.0 1.1 48 6 90 1009
21.04 - 19:50 Uhr 12.4 0.0 1.0 46 11 50 1009
21.04 - 19:40 Uhr 12.5 0.0 0.9 45 11 60 1009
21.04 - 19:30 Uhr 12.7 0.0 0.9 44 17 90 1009
21.04 - 19:20 Uhr 13.0 0.0 0.7 43 21 70 1009
21.04 - 19:10 Uhr 13.3 0.0 0.7 42 22 70 1009
21.04 - 19:00 Uhr 13.8 0.0 1.2 42 25 70 1009
21.04 - 18:50 Uhr 14.3 0.0 0.8 40 13 100 1009
21.04 - 18:40 Uhr 14.1 0.0 0.8 40 13 80 1009
21.04 - 18:30 Uhr 13.9 0.0 0.8 41 12 50 1009
21.04 - 18:20 Uhr 13.9 0.0 1.2 42 18 90 1009
21.04 - 18:10 Uhr 13.6 0.0 0.8 42 22 80 1009
21.04 - 18:00 Uhr 13.7 0.0 0.3 40 26 70 1009
21.04 - 17:50 Uhr 14.0 0.0 0.1 39 24 70 1009
21.04 - 17:40 Uhr 14.0 0.0 -0.1 38 30 50 1009
21.04 - 17:30 Uhr 14.1 0.0 0.4 39 27 60 1009
21.04 - 17:20 Uhr 14.7 0.0 0.9 39 19 40 1008
21.04 - 17:10 Uhr 14.2 0.0 0.9 40 24 20 1008
21.04 - 17:00 Uhr 14.1 0.0 1.0 41 23 50 1008

Daten: Quelle DWD